createdAt,value
2023-02-06T00:00:45.035Z,9.457098
2023-02-06T00:01:44.974Z,9.457098
2023-02-06T00:02:45.032Z,9.457265
2023-02-06T00:03:44.995Z,9.457265
2023-02-06T00:04:44.949Z,9.457265
2023-02-06T00:05:44.996Z,9.457265
2023-02-06T00:06:44.949Z,9.457051
2023-02-06T00:07:44.929Z,9.457160
2023-02-06T00:08:44.945Z,9.457176
2023-02-06T00:09:44.903Z,9.457134
2023-02-06T00:10:44.900Z,9.457318
2023-02-06T00:11:44.875Z,9.457198
2023-02-06T00:12:45.894Z,9.457211
2023-02-06T00:13:44.884Z,9.457363
2023-02-06T00:14:44.868Z,9.457234
2023-02-06T00:15:44.930Z,9.457430
2023-02-06T00:16:44.863Z,9.457276
2023-02-06T00:17:44.825Z,9.457165
2023-02-06T00:18:44.841Z,9.457244
2023-02-06T00:19:44.812Z,9.457347
2023-02-06T00:20:44.800Z,9.457239
2023-02-06T00:21:44.803Z,9.457331
2023-02-06T00:22:44.803Z,9.457232
2023-02-06T00:23:44.800Z,9.457088
2023-02-06T00:24:44.777Z,9.457127
2023-02-06T00:25:44.759Z,9.457250
2023-02-06T00:26:44.766Z,9.457178
2023-02-06T00:27:44.780Z,9.456999
2023-02-06T00:28:44.777Z,9.457138
2023-02-06T00:29:44.725Z,9.457242
2023-02-06T00:30:44.725Z,9.457214
2023-02-06T00:31:44.773Z,9.457202
2023-02-06T00:32:44.756Z,9.457265
2023-02-06T00:33:44.714Z,9.457374
2023-02-06T00:34:44.683Z,9.457267
2023-02-06T00:35:44.677Z,9.457326
2023-02-06T00:36:44.666Z,9.457305
2023-02-06T00:37:44.663Z,9.457171
2023-02-06T00:38:44.680Z,9.457220
2023-02-06T00:39:44.635Z,9.457444
2023-02-06T00:40:44.632Z,9.457632
2023-02-06T00:41:44.621Z,9.457409
2023-02-06T00:42:44.617Z,9.457332
2023-02-06T00:43:44.627Z,9.457269
2023-02-06T00:44:44.591Z,9.457304
2023-02-06T00:45:45.586Z,9.457409
2023-02-06T00:46:44.580Z,9.457334
2023-02-06T00:47:44.579Z,9.457245
2023-02-06T00:48:44.590Z,9.457219
2023-02-06T00:49:44.545Z,9.457136
2023-02-06T00:50:44.548Z,9.457258
2023-02-06T00:51:44.534Z,9.457248
2023-02-06T00:52:44.526Z,9.457194
2023-02-06T00:53:44.536Z,9.457172
2023-02-06T00:54:44.503Z,9.457209
2023-02-06T00:55:44.515Z,9.457313
2023-02-06T00:56:44.482Z,9.457211
2023-02-06T00:57:44.485Z,9.457343
2023-02-06T00:58:44.493Z,9.457318
2023-02-06T00:59:44.459Z,9.457217
2023-02-06T01:00:44.457Z,9.457330
2023-02-06T01:01:44.517Z,9.457158
2023-02-06T01:02:44.457Z,9.457281
2023-02-06T01:03:44.460Z,9.457367
2023-02-06T01:04:44.417Z,9.457295
2023-02-06T01:05:44.413Z,9.457309
2023-02-06T01:06:44.406Z,9.457208
2023-02-06T01:07:44.396Z,9.457345
2023-02-06T01:08:44.414Z,9.457376
2023-02-06T01:09:44.378Z,9.457128
2023-02-06T01:10:44.357Z,9.457105
2023-02-06T01:11:45.365Z,9.457093
2023-02-06T01:12:44.349Z,9.457294
2023-02-06T01:13:44.363Z,9.457092
2023-02-06T01:14:44.340Z,9.457386
2023-02-06T01:15:44.363Z,9.457192
2023-02-06T01:16:44.319Z,9.457202
2023-02-06T01:17:44.309Z,9.457021
2023-02-06T01:18:44.481Z,9.457051
2023-02-06T01:19:44.297Z,9.457167
2023-02-06T01:20:44.282Z,9.457101
2023-02-06T01:21:44.276Z,9.457070
2023-02-06T01:22:44.281Z,9.456929
2023-02-06T01:23:44.256Z,9.456951
2023-02-06T01:24:44.239Z,9.457811
2023-02-06T01:25:45.239Z,9.457294
2023-02-06T01:26:44.251Z,9.457299
2023-02-06T01:27:44.337Z,9.457294
2023-02-06T01:28:44.233Z,9.457195
2023-02-06T01:29:44.213Z,9.457113
2023-02-06T01:30:44.235Z,9.457084
2023-02-06T01:31:44.218Z,9.457078
2023-02-06T01:32:44.174Z,9.456956
2023-02-06T01:33:44.209Z,9.456998
2023-02-06T01:34:44.159Z,9.456985
2023-02-06T01:35:44.153Z,9.457045
2023-02-06T01:36:44.140Z,9.457037
2023-02-06T01:37:44.129Z,9.457137
2023-02-06T01:38:44.137Z,9.457454
2023-02-06T01:39:44.104Z,9.457154
2023-02-06T01:40:44.109Z,9.457084
2023-02-06T01:41:44.088Z,9.456926
2023-02-06T01:42:44.091Z,9.457170
2023-02-06T01:43:44.100Z,9.456956
2023-02-06T01:44:44.063Z,9.456957
2023-02-06T01:45:44.063Z,9.456906
2023-02-06T01:46:44.092Z,9.457168
2023-02-06T01:47:44.032Z,9.457146
2023-02-06T01:48:44.067Z,9.456985
2023-02-06T01:49:44.019Z,9.457037
2023-02-06T01:50:44.017Z,9.456981
2023-02-06T01:51:44.001Z,9.457014
2023-02-06T01:52:44.127Z,9.457284
2023-02-06T01:53:44.042Z,9.457147
2023-02-06T01:54:43.976Z,9.457293
2023-02-06T01:55:43.965Z,9.457320
2023-02-06T01:56:43.953Z,9.457364
2023-02-06T01:57:43.941Z,9.457199
2023-02-06T01:58:43.963Z,9.457178
2023-02-06T01:59:43.924Z,9.457148
2023-02-06T02:00:43.943Z,9.457118
2023-02-06T02:01:43.935Z,9.457159
2023-02-06T02:02:43.904Z,9.457222
2023-02-06T02:03:43.967Z,9.457443
2023-02-06T02:04:43.880Z,9.457397
2023-02-06T02:05:43.874Z,9.457417
2023-02-06T02:06:43.867Z,9.457568
2023-02-06T02:07:43.863Z,9.457193
2023-02-06T02:08:43.884Z,9.457009
2023-02-06T02:09:43.837Z,9.457144
2023-02-06T02:10:43.836Z,9.457100
2023-02-06T02:11:43.857Z,9.457061
2023-02-06T02:12:43.817Z,9.457120
2023-02-06T02:13:43.918Z,9.457170
2023-02-06T02:14:43.812Z,9.457163
2023-02-06T02:15:43.793Z,9.457222
2023-02-06T02:16:43.794Z,9.456957
2023-02-06T02:17:43.779Z,9.457090
2023-02-06T02:18:43.796Z,9.457020
2023-02-06T02:19:43.762Z,9.457131
2023-02-06T02:20:43.749Z,9.457398
2023-02-06T02:21:43.752Z,9.457370
2023-02-06T02:22:43.724Z,9.457250
2023-02-06T02:23:44.755Z,9.457386
2023-02-06T02:24:43.721Z,9.457398
2023-02-06T02:25:43.709Z,9.457186
2023-02-06T02:26:43.701Z,9.457189
2023-02-06T02:27:43.769Z,9.457292
2023-02-06T02:28:43.705Z,9.457236
2023-02-06T02:29:43.677Z,9.457334
2023-02-06T02:30:43.799Z,9.457194
2023-02-06T02:31:43.664Z,9.457308
2023-02-06T02:32:43.645Z,9.457279
2023-02-06T02:33:43.648Z,9.457237
2023-02-06T02:34:43.647Z,9.457114
2023-02-06T02:35:43.604Z,9.457284
2023-02-06T02:36:44.611Z,9.457160
2023-02-06T02:37:43.608Z,9.457212
2023-02-06T02:38:43.587Z,9.457205
2023-02-06T02:39:43.601Z,9.457194
2023-02-06T02:40:43.582Z,9.457157
2023-02-06T02:41:43.562Z,9.457246
2023-02-06T02:42:43.557Z,9.457217
2023-02-06T02:43:43.555Z,9.457131
2023-02-06T02:44:43.580Z,9.457260
2023-02-06T02:45:43.577Z,9.457263
2023-02-06T02:46:43.527Z,9.457273
2023-02-06T02:47:43.516Z,9.457231
2023-02-06T02:48:43.501Z,9.457176
2023-02-06T02:49:43.514Z,9.457240
2023-02-06T02:50:43.478Z,9.457193
2023-02-06T02:51:43.476Z,9.457288
2023-02-06T02:52:43.466Z,9.457174
2023-02-06T02:53:43.460Z,9.457491
2023-02-06T02:54:43.465Z,9.457279
2023-02-06T02:55:43.437Z,9.457145
2023-02-06T02:56:43.422Z,9.457569
2023-02-06T02:57:43.413Z,9.457494
2023-02-06T02:58:43.409Z,9.457136
2023-02-06T02:59:43.423Z,9.457726
2023-02-06T03:00:43.442Z,9.457616
2023-02-06T03:01:43.382Z,9.457210
2023-02-06T03:02:43.362Z,9.457836
2023-02-06T03:03:43.355Z,9.457725
2023-02-06T03:04:43.367Z,9.457772
2023-02-06T03:05:43.344Z,9.457373
2023-02-06T03:06:43.343Z,9.457217
2023-02-06T03:07:43.330Z,9.457099
2023-02-06T03:08:43.307Z,9.456624
2023-02-06T03:09:45.874Z,9.457532
2023-02-06T03:10:44.295Z,9.457332
2023-02-06T03:11:43.290Z,9.457566
2023-02-06T03:12:43.280Z,9.457063
2023-02-06T03:13:43.259Z,9.457396
2023-02-06T03:14:43.281Z,9.457482
2023-02-06T03:15:43.267Z,9.457562
2023-02-06T03:16:43.293Z,9.457395
2023-02-06T03:17:43.229Z,9.457108
2023-02-06T03:18:43.218Z,9.457344
2023-02-06T03:19:43.223Z,9.457139
2023-02-06T03:20:43.195Z,9.456986
2023-02-06T03:21:43.190Z,9.456929
2023-02-06T03:22:43.219Z,9.457006
2023-02-06T03:23:43.187Z,9.457203
2023-02-06T03:24:43.188Z,9.457200
2023-02-06T03:25:43.155Z,9.457302
2023-02-06T03:26:43.153Z,9.456990
2023-02-06T03:27:43.167Z,9.457050
2023-02-06T03:28:43.131Z,9.457092
2023-02-06T03:29:43.140Z,9.457020
2023-02-06T03:30:43.129Z,9.457266
2023-02-06T03:31:43.167Z,9.457150
2023-02-06T03:32:43.096Z,9.457178
2023-02-06T03:33:43.099Z,9.457280
2023-02-06T03:34:43.078Z,9.457149
2023-02-06T03:35:43.076Z,9.456785
2023-02-06T03:36:43.066Z,9.457072
2023-02-06T03:37:43.041Z,9.457121
2023-02-06T03:38:43.045Z,9.457196
2023-02-06T03:39:43.050Z,9.457023
2023-02-06T03:40:43.019Z,9.457026
2023-02-06T03:41:43.014Z,9.457069
2023-02-06T03:42:43.003Z,9.456922
2023-02-06T03:43:42.991Z,9.457001
2023-02-06T03:44:43.003Z,9.457298
2023-02-06T03:45:42.992Z,9.457277
2023-02-06T03:46:42.976Z,9.457459
2023-02-06T03:47:42.961Z,9.457328
2023-02-06T03:48:42.940Z,9.457292
2023-02-06T03:49:42.959Z,9.457533
2023-02-06T03:50:42.937Z,9.457335
2023-02-06T03:51:42.915Z,9.457229
2023-02-06T03:52:42.907Z,9.457182
2023-02-06T03:53:42.899Z,9.457273
2023-02-06T03:54:42.903Z,9.457365
2023-02-06T03:55:42.904Z,9.457233
2023-02-06T03:56:42.870Z,9.457183
2023-02-06T03:57:42.865Z,9.457302
2023-02-06T03:58:42.915Z,9.457129
2023-02-06T03:59:42.861Z,9.457499
2023-02-06T04:00:42.846Z,9.457453
2023-02-06T04:01:42.829Z,9.457339
2023-02-06T04:02:42.886Z,9.457481
2023-02-06T04:03:42.813Z,9.457433
2023-02-06T04:04:42.825Z,9.457389
2023-02-06T04:05:42.795Z,9.457509
2023-02-06T04:06:42.786Z,9.457355
2023-02-06T04:07:42.799Z,9.457219
2023-02-06T04:08:42.766Z,9.456821
2023-02-06T04:09:42.796Z,9.457104
2023-02-06T04:10:42.750Z,9.457086
2023-02-06T04:11:42.745Z,9.457343
2023-02-06T04:12:42.735Z,9.457120
2023-02-06T04:13:42.726Z,9.457411
2023-02-06T04:14:42.740Z,9.457546
2023-02-06T04:15:42.712Z,9.457714
2023-02-06T04:16:42.773Z,9.457406
2023-02-06T04:17:57.688Z,9.457355
2023-02-06T04:18:44.691Z,9.457297
2023-02-06T04:19:42.714Z,9.457305
2023-02-06T04:20:42.668Z,9.457224
2023-02-06T04:21:42.660Z,9.457321
2023-02-06T04:22:42.652Z,9.457288
2023-02-06T04:23:42.649Z,9.457218
2023-02-06T04:24:42.662Z,9.457300
2023-02-06T04:25:42.628Z,9.457240
2023-02-06T04:26:42.617Z,9.457170
2023-02-06T04:27:42.623Z,9.457245
2023-02-06T04:28:42.606Z,9.457431
2023-02-06T04:29:42.609Z,9.457533
2023-02-06T04:30:42.751Z,9.457548
2023-02-06T04:31:42.656Z,9.457333
2023-02-06T04:32:42.577Z,9.457395
2023-02-06T04:33:42.568Z,9.457334
2023-02-06T04:34:42.569Z,9.457308
2023-02-06T04:35:42.549Z,9.457174
2023-02-06T04:36:42.530Z,9.457266
2023-02-06T04:37:42.537Z,9.457279
2023-02-06T04:38:42.529Z,9.457262
2023-02-06T04:39:42.529Z,9.457271
2023-02-06T04:40:42.502Z,9.457215
2023-02-06T04:41:42.490Z,9.457211
2023-02-06T04:42:42.487Z,9.457275
2023-02-06T04:43:42.493Z,9.457481
2023-02-06T04:44:42.491Z,9.457397
2023-02-06T04:45:42.470Z,9.457474
2023-02-06T04:46:42.457Z,9.457189
2023-02-06T04:47:42.442Z,9.457330
2023-02-06T04:48:42.491Z,9.457472
2023-02-06T04:49:42.458Z,9.457370
2023-02-06T04:50:42.410Z,9.457318
2023-02-06T04:51:42.413Z,9.457337
2023-02-06T04:52:42.400Z,9.457423
2023-02-06T04:54:14.797Z,9.457520
2023-02-06T04:54:42.411Z,9.457329
2023-02-06T04:55:42.374Z,9.457232
2023-02-06T04:56:42.370Z,9.457253
2023-02-06T04:57:42.365Z,9.457366
2023-02-06T04:58:42.353Z,9.457298
2023-02-06T04:59:42.379Z,9.457251
2023-02-06T05:00:42.332Z,9.457265
2023-02-06T05:01:42.340Z,9.457517
2023-02-06T05:02:43.359Z,9.457435
2023-02-06T05:03:42.308Z,9.457361
2023-02-06T05:04:42.354Z,9.457409
2023-02-06T05:05:42.288Z,9.457384
2023-02-06T05:06:42.281Z,9.457320
2023-02-06T05:07:42.297Z,9.457517
2023-02-06T05:08:42.264Z,9.457390
2023-02-06T05:09:42.281Z,9.457282
2023-02-06T05:10:42.242Z,9.457286
2023-02-06T05:11:42.238Z,9.457333
2023-02-06T05:12:42.228Z,9.457309
2023-02-06T05:13:42.218Z,9.457425
2023-02-06T05:14:42.247Z,9.457356
2023-02-06T05:15:42.226Z,9.457500
2023-02-06T05:16:42.192Z,9.457477
2023-02-06T05:17:42.189Z,9.457398
2023-02-06T05:18:42.179Z,9.457244
2023-02-06T05:19:42.208Z,9.457297
2023-02-06T05:20:42.163Z,9.457317
2023-02-06T05:21:42.137Z,9.457380
2023-02-06T05:22:42.137Z,9.457395
2023-02-06T05:23:42.132Z,9.457232
2023-02-06T05:24:42.154Z,9.457254
2023-02-06T05:25:42.411Z,9.457369
2023-02-06T05:26:43.102Z,9.457382
2023-02-06T05:27:42.091Z,9.457286
2023-02-06T05:28:42.085Z,9.457241
2023-02-06T05:29:42.097Z,9.457263
2023-02-06T05:30:42.107Z,9.457294
2023-02-06T05:31:42.118Z,9.457394
2023-02-06T05:32:42.052Z,9.457623
2023-02-06T05:33:42.045Z,9.457382
2023-02-06T05:34:42.032Z,9.457356
2023-02-06T05:35:42.052Z,9.457365
2023-02-06T05:36:42.025Z,9.457219
2023-02-06T05:37:42.014Z,9.457223
2023-02-06T05:38:42.004Z,9.457186
2023-02-06T05:39:42.018Z,9.457115
2023-02-06T05:40:41.990Z,9.457325
2023-02-06T05:41:41.980Z,9.457335
2023-02-06T05:42:41.974Z,9.457292
2023-02-06T05:43:41.970Z,9.457316
2023-02-06T05:44:41.998Z,9.457099
2023-02-06T05:45:41.945Z,9.457160
2023-02-06T05:46:42.013Z,9.457159
2023-02-06T05:47:41.937Z,9.457333
2023-02-06T05:48:41.932Z,9.457331
2023-02-06T05:49:41.943Z,9.457350
2023-02-06T05:50:43.292Z,9.457329
2023-02-06T05:51:42.905Z,9.457232
2023-02-06T05:52:41.909Z,9.457249
2023-02-06T05:53:41.889Z,9.457268
2023-02-06T05:54:41.908Z,9.457146
2023-02-06T05:55:41.874Z,9.457211
2023-02-06T05:56:41.893Z,9.457191
2023-02-06T05:57:41.859Z,9.457264
2023-02-06T05:58:41.845Z,9.457376
2023-02-06T05:59:41.874Z,9.457354
2023-02-06T06:00:41.865Z,9.457380
2023-02-06T06:01:41.829Z,9.457254
2023-02-06T06:02:41.828Z,9.457302
2023-02-06T06:03:41.832Z,9.457385
2023-02-06T06:04:41.871Z,9.457264
2023-02-06T06:05:41.789Z,9.457079
2023-02-06T06:06:41.789Z,9.456988
2023-02-06T06:07:41.780Z,9.457035
2023-02-06T06:08:41.766Z,9.457430
2023-02-06T06:09:41.784Z,9.456844
2023-02-06T06:10:41.770Z,9.456860
2023-02-06T06:11:41.742Z,9.456891
2023-02-06T06:12:41.737Z,9.457049
2023-02-06T06:13:41.729Z,9.457024
2023-02-06T06:14:41.713Z,9.457126
2023-02-06T06:15:41.732Z,9.457096
2023-02-06T06:16:41.705Z,9.457125
2023-02-06T06:17:41.711Z,9.457164
2023-02-06T06:18:41.686Z,9.457103
2023-02-06T06:19:41.697Z,9.457125
2023-02-06T06:20:41.672Z,9.457120
2023-02-06T06:21:41.703Z,9.457172
2023-02-06T06:22:41.665Z,9.457068
2023-02-06T06:23:41.642Z,9.457160
2023-02-06T06:24:41.645Z,9.457237
2023-02-06T06:25:41.660Z,9.457095
2023-02-06T06:26:41.625Z,9.457162
2023-02-06T06:27:41.618Z,9.457171
2023-02-06T06:28:41.608Z,9.457065
2023-02-06T06:29:41.588Z,9.457096
2023-02-06T06:30:41.703Z,9.457285
2023-02-06T06:31:41.609Z,9.457308
2023-02-06T06:32:41.588Z,9.457217
2023-02-06T06:33:41.566Z,9.457199
2023-02-06T06:34:41.559Z,9.457091
2023-02-06T06:35:41.568Z,9.457163
2023-02-06T06:36:41.526Z,9.457261
2023-02-06T06:37:41.513Z,9.457170
2023-02-06T06:38:41.517Z,9.457193
2023-02-06T06:39:41.507Z,9.457108
2023-02-06T06:40:41.524Z,9.457172
2023-02-06T06:41:41.484Z,9.457162
2023-02-06T06:42:42.475Z,9.457142
2023-02-06T06:43:41.467Z,9.457124
2023-02-06T06:44:41.459Z,9.457047
2023-02-06T06:45:41.500Z,9.457132
2023-02-06T06:46:41.459Z,9.457158
2023-02-06T06:47:41.517Z,9.457253
2023-02-06T06:48:41.429Z,9.457231
2023-02-06T06:49:41.421Z,9.457103
2023-02-06T06:50:41.430Z,9.457035
2023-02-06T06:51:41.400Z,9.456996
2023-02-06T06:52:41.397Z,9.456998
2023-02-06T06:53:41.386Z,9.457079
2023-02-06T06:54:41.384Z,9.457108
2023-02-06T06:55:41.403Z,9.457185
2023-02-06T06:56:41.400Z,9.457178
2023-02-06T06:57:41.374Z,9.457107
2023-02-06T06:58:41.383Z,9.457096
2023-02-06T06:59:41.340Z,9.457058
2023-02-06T07:00:41.375Z,9.457113
2023-02-06T07:01:41.315Z,9.457087
2023-02-06T07:02:41.322Z,9.457094
2023-02-06T07:03:41.303Z,9.457091
2023-02-06T07:04:41.291Z,9.457226
2023-02-06T07:05:42.304Z,9.457136
2023-02-06T07:06:41.282Z,9.457217
2023-02-06T07:07:41.276Z,9.457417
2023-02-06T07:08:41.266Z,9.457065
2023-02-06T07:09:41.260Z,9.456757
2023-02-06T07:10:41.271Z,9.456997
2023-02-06T07:11:41.398Z,9.457099
2023-02-06T07:12:41.233Z,9.457144
2023-02-06T07:13:41.224Z,9.457067
2023-02-06T07:14:41.215Z,9.457117
2023-02-06T07:15:41.286Z,9.457120
2023-02-06T07:16:41.280Z,9.457161
2023-02-06T07:17:41.193Z,9.457138
2023-02-06T07:18:41.200Z,9.457201
2023-02-06T07:19:41.197Z,9.457220
2023-02-06T07:20:41.166Z,9.457194
2023-02-06T07:21:41.169Z,9.457198
2023-02-06T07:22:41.152Z,9.457225
2023-02-06T07:23:41.139Z,9.457204
2023-02-06T07:24:41.172Z,9.457200
2023-02-06T07:25:41.128Z,9.457289
2023-02-06T07:26:41.118Z,9.457149
2023-02-06T07:27:41.115Z,9.457130
2023-02-06T07:28:41.116Z,9.457210
2023-02-06T07:29:42.122Z,9.457210
2023-02-06T07:30:41.135Z,9.457080
2023-02-06T07:31:41.178Z,9.457131
2023-02-06T07:32:41.069Z,9.457266
2023-02-06T07:33:41.057Z,9.457210
2023-02-06T07:34:41.058Z,9.456949
2023-02-06T07:35:41.063Z,9.457088
2023-02-06T07:36:41.053Z,9.457157
2023-02-06T07:37:41.036Z,9.457213
2023-02-06T07:38:41.018Z,9.457223
2023-02-06T07:39:41.009Z,9.457060
2023-02-06T07:40:44.989Z,9.457062
2023-02-06T07:41:41.993Z,9.457237
2023-02-06T07:42:40.990Z,9.457228
2023-02-06T07:43:40.985Z,9.457139
2023-02-06T07:44:40.977Z,9.457107
2023-02-06T07:45:41.049Z,9.457122
2023-02-06T07:46:40.962Z,9.457253
2023-02-06T07:47:40.955Z,9.457397
2023-02-06T07:48:40.959Z,9.457157
2023-02-06T07:49:40.939Z,9.457238
2023-02-06T07:50:40.941Z,9.457135
2023-02-06T07:51:40.933Z,9.456956
2023-02-06T07:52:40.907Z,9.457050
2023-02-06T07:53:40.905Z,9.457207
2023-02-06T07:54:40.915Z,9.457267
2023-02-06T07:55:40.958Z,9.457256
2023-02-06T07:56:40.880Z,9.457232
2023-02-06T07:57:40.881Z,9.457194
2023-02-06T07:58:40.866Z,9.457176
2023-02-06T07:59:40.857Z,9.457271
2023-02-06T08:00:40.891Z,9.457281
2023-02-06T08:01:40.838Z,9.457250
2023-02-06T08:02:40.830Z,9.457145
2023-02-06T08:03:40.827Z,9.457265
2023-02-06T08:04:40.852Z,9.457086
2023-02-06T08:05:40.815Z,9.457123
2023-02-06T08:06:40.801Z,9.457277
2023-02-06T08:07:40.783Z,9.457100
2023-02-06T08:08:40.769Z,9.457074
2023-02-06T08:09:40.800Z,9.457443
2023-02-06T08:10:40.776Z,9.457306
2023-02-06T08:11:40.753Z,9.457189
2023-02-06T08:12:40.743Z,9.457116
2023-02-06T08:13:40.730Z,9.457030
2023-02-06T08:14:40.720Z,9.457051
2023-02-06T08:15:40.726Z,9.457107
2023-02-06T08:16:40.799Z,9.457134
2023-02-06T08:17:40.687Z,9.457163
2023-02-06T08:18:40.683Z,9.457163
2023-02-06T08:19:40.687Z,9.457141
2023-02-06T08:20:40.684Z,9.457094
2023-02-06T08:21:40.663Z,9.457230
2023-02-06T08:22:40.649Z,9.457306
2023-02-06T08:23:40.649Z,9.457148
2023-02-06T08:24:40.646Z,9.457274
2023-02-06T08:25:40.648Z,9.457252
2023-02-06T08:26:40.620Z,9.457152
2023-02-06T08:27:40.618Z,9.456956
2023-02-06T08:28:42.297Z,9.457149
2023-02-06T08:29:41.603Z,9.457112
2023-02-06T08:30:40.651Z,9.457136
2023-02-06T08:31:40.743Z,9.457137
2023-02-06T08:32:40.638Z,9.457199
2023-02-06T08:33:40.573Z,9.457316
2023-02-06T08:34:40.548Z,9.457200
2023-02-06T08:35:40.644Z,9.457303
2023-02-06T08:36:42.152Z,9.457134
2023-02-06T08:37:40.514Z,9.456909
2023-02-06T08:38:40.509Z,9.457014
2023-02-06T08:39:40.500Z,9.456877
2023-02-06T08:40:40.510Z,9.456902
2023-02-06T08:41:40.487Z,9.457240
2023-02-06T08:42:40.475Z,9.457239
2023-02-06T08:43:40.473Z,9.457157
2023-02-06T08:44:40.467Z,9.457067
2023-02-06T08:45:40.470Z,9.457167
2023-02-06T08:46:40.447Z,9.456779
2023-02-06T08:47:40.436Z,9.456931
2023-02-06T08:48:40.422Z,9.456738
2023-02-06T08:49:40.427Z,9.456590
2023-02-06T08:50:40.443Z,9.455717
2023-02-06T08:51:40.411Z,9.455520
2023-02-06T08:52:40.393Z,9.455798
2023-02-06T08:53:40.384Z,9.455964
2023-02-06T08:54:40.392Z,9.456285
2023-02-06T08:55:40.748Z,9.457134
2023-02-06T08:56:40.376Z,9.457310
2023-02-06T08:57:40.352Z,9.457214
2023-02-06T08:58:40.354Z,9.457182
2023-02-06T08:59:40.341Z,9.457131
2023-02-06T09:00:40.337Z,9.457157
2023-02-06T09:01:40.363Z,9.457119
2023-02-06T09:02:40.351Z,9.457125
2023-02-06T09:03:40.302Z,9.457088
2023-02-06T09:04:40.297Z,9.457109
2023-02-06T09:05:40.311Z,9.457193
2023-02-06T09:06:40.284Z,9.457135
2023-02-06T09:07:40.265Z,9.457065
2023-02-06T09:08:40.262Z,9.456930
2023-02-06T09:09:40.265Z,9.457061
2023-02-06T09:10:40.261Z,9.456931
2023-02-06T09:11:40.252Z,9.456944
2023-02-06T09:12:40.225Z,9.456753
2023-02-06T09:13:40.219Z,9.457094
2023-02-06T09:14:40.216Z,9.457089
2023-02-06T09:15:40.620Z,9.457120
2023-02-06T09:16:40.247Z,9.457193
2023-02-06T09:17:40.175Z,9.457147
2023-02-06T09:18:40.190Z,9.457163
2023-02-06T09:19:40.188Z,9.457084
2023-02-06T09:20:40.154Z,9.457147
2023-02-06T09:21:40.162Z,9.456991
2023-02-06T09:22:40.142Z,9.457046
2023-02-06T09:23:40.127Z,9.456990
2023-02-06T09:24:40.108Z,9.457148
2023-02-06T09:25:40.108Z,9.457244
2023-02-06T09:26:53.533Z,9.457319
2023-02-06T09:27:42.078Z,9.457220
2023-02-06T09:28:40.087Z,9.457277
2023-02-06T09:29:40.056Z,9.457203
2023-02-06T09:30:40.084Z,9.457102
2023-02-06T09:31:40.084Z,9.457106
2023-02-06T09:32:40.110Z,9.457158
2023-02-06T09:33:40.048Z,9.457152
2023-02-06T09:34:40.013Z,9.457248
2023-02-06T09:35:40.016Z,9.457202
2023-02-06T09:36:40.011Z,9.456999
2023-02-06T09:37:39.980Z,9.457194
2023-02-06T09:38:39.974Z,9.457423
2023-02-06T09:39:39.962Z,9.457329
2023-02-06T09:40:39.952Z,9.457212
2023-02-06T09:41:39.964Z,9.457192
2023-02-06T09:42:39.937Z,9.457128
2023-02-06T09:43:39.928Z,9.457164
2023-02-06T09:44:39.928Z,9.457088
2023-02-06T09:45:39.956Z,9.457114
2023-02-06T09:46:39.988Z,9.457006
2023-02-06T09:47:39.904Z,9.456944
2023-02-06T09:48:39.877Z,9.457028
2023-02-06T09:49:39.884Z,9.457042
2023-02-06T09:50:39.865Z,9.457092
2023-02-06T09:51:39.924Z,9.457196
2023-02-06T09:52:39.841Z,9.456829
2023-02-06T09:53:39.828Z,9.456883
2023-02-06T09:54:39.819Z,9.457006
2023-02-06T09:55:39.925Z,9.456917
2023-02-06T09:56:39.837Z,9.457135
2023-02-06T09:57:39.783Z,9.457238
2023-02-06T09:58:39.776Z,9.457302
2023-02-06T09:59:39.768Z,9.457249
2023-02-06T10:00:40.770Z,9.457224
2023-02-06T10:01:39.817Z,9.457183
2023-02-06T10:02:39.736Z,9.457248
2023-02-06T10:03:39.776Z,9.457210
2023-02-06T10:04:39.725Z,9.457268
2023-02-06T10:05:39.768Z,9.457058
2023-02-06T10:06:39.702Z,9.457007
2023-02-06T10:07:39.730Z,9.457058
2023-02-06T10:08:39.733Z,9.457249
2023-02-06T10:09:39.670Z,9.457169
2023-02-06T10:10:39.663Z,9.457252
2023-02-06T10:11:39.659Z,9.457177
2023-02-06T10:12:39.677Z,9.457280
2023-02-06T10:13:39.639Z,9.457283
2023-02-06T10:14:39.626Z,9.457368
2023-02-06T10:15:39.648Z,9.457143
2023-02-06T10:16:39.662Z,9.457152
2023-02-06T10:17:39.621Z,9.457044
2023-02-06T10:18:39.596Z,9.457152
2023-02-06T10:19:39.578Z,9.457230
2023-02-06T10:20:39.578Z,9.457207
2023-02-06T10:21:39.615Z,9.457266
2023-02-06T10:22:39.554Z,9.457326
2023-02-06T10:23:39.567Z,9.457237
2023-02-06T10:24:39.579Z,9.457375
2023-02-06T10:25:39.592Z,9.457286
2023-02-06T10:26:39.563Z,9.457300
2023-02-06T10:27:39.501Z,9.457427
2023-02-06T10:28:39.487Z,9.457378
2023-02-06T10:29:39.479Z,9.457295
2023-02-06T10:30:39.472Z,9.457199
2023-02-06T10:31:39.509Z,9.457268
2023-02-06T10:32:39.452Z,9.457346
2023-02-06T10:33:39.462Z,9.457473
2023-02-06T10:34:39.443Z,9.457623
2023-02-06T10:35:39.672Z,9.457665
2023-02-06T10:36:39.450Z,9.457439
2023-02-06T10:37:39.416Z,9.457560
2023-02-06T10:38:39.413Z,9.457338
2023-02-06T10:39:39.387Z,9.457362
2023-02-06T10:40:39.374Z,9.457219
2023-02-06T10:41:39.416Z,9.457190
2023-02-06T10:42:39.364Z,9.457284
2023-02-06T10:43:39.354Z,9.457240
2023-02-06T10:44:39.340Z,9.457292
2023-02-06T10:45:39.476Z,9.457336
2023-02-06T10:46:39.349Z,9.457416
2023-02-06T10:47:39.301Z,9.457607
2023-02-06T10:48:39.293Z,9.457734
2023-02-06T10:49:39.279Z,9.457337
2023-02-06T10:50:39.280Z,9.457279
2023-02-06T10:51:39.299Z,9.457211
2023-02-06T10:52:40.256Z,9.457510
2023-02-06T10:53:39.238Z,9.457515
2023-02-06T11:00:12.932Z,9.457147
2023-02-06T11:01:24.996Z,9.457672
2023-02-06T11:02:14.969Z,9.457619
2023-02-06T11:03:12.966Z,9.457621
2023-02-06T11:04:12.923Z,9.457645
2023-02-06T11:05:12.872Z,9.457580
2023-02-06T11:06:12.864Z,9.457499
2023-02-06T11:07:12.867Z,9.457572
2023-02-06T11:08:12.848Z,9.457682
2023-02-06T11:09:12.829Z,9.457644
2023-02-06T11:10:12.826Z,9.457386
2023-02-06T11:11:12.803Z,9.457516
2023-02-06T11:12:12.812Z,9.457549
2023-02-06T11:13:12.786Z,9.457585
2023-02-06T11:14:12.793Z,9.457653
2023-02-06T11:15:12.913Z,9.457483
2023-02-06T11:16:12.815Z,9.457306
2023-02-06T11:17:12.780Z,9.457253
2023-02-06T11:18:12.739Z,9.457410
2023-02-06T11:19:12.719Z,9.457551
2023-02-06T11:20:12.706Z,9.457405
2023-02-06T11:21:12.698Z,9.457451
2023-02-06T11:22:12.765Z,9.457575
2023-02-06T11:23:12.673Z,9.458086
2023-02-06T11:24:12.677Z,9.457812
2023-02-06T11:25:12.650Z,9.457793
2023-02-06T11:26:12.646Z,9.457767
2023-02-06T11:27:12.660Z,9.457655
2023-02-06T11:28:12.762Z,9.457338
2023-02-06T11:29:12.631Z,9.457091
2023-02-06T11:30:12.610Z,9.457072
2023-02-06T11:31:12.618Z,9.457289
2023-02-06T11:32:12.605Z,9.457288
2023-02-06T11:33:12.566Z,9.457376
2023-02-06T11:34:12.561Z,9.457293
2023-02-06T11:35:12.536Z,9.457066
2023-02-06T11:36:12.524Z,9.457253
2023-02-06T11:37:12.510Z,9.457433
2023-02-06T11:38:12.500Z,9.457187
2023-02-06T11:39:12.558Z,9.457043
2023-02-06T11:40:12.477Z,9.457050
2023-02-06T11:41:14.588Z,9.457241
2023-02-06T11:42:12.466Z,9.457513
2023-02-06T11:43:12.442Z,9.457352
2023-02-06T11:44:12.460Z,9.457234
2023-02-06T11:45:12.425Z,9.456992
2023-02-06T11:46:12.475Z,9.456941
2023-02-06T11:47:12.428Z,9.457188
2023-02-06T11:48:12.394Z,9.457292
2023-02-06T11:49:12.383Z,9.457250
2023-02-06T11:50:12.375Z,9.457138